BAW461A EGLL-EGKK
Flight info
| Callsign | BAW461A |
|---|---|
| Flight time | 0h 12m |
| Altitude | 8000 |
| Route | MAXIT DCT MID |
| Aircraft | A320/M-SDE3FGHIRWY/LB1 |
Departure
| Time | 2026-05-07 18:16 |
|---|---|
| Airport | London Heathrow Airport (EGLL) |
Arrival
| Time | 2026-05-07 18:28 |
|---|---|
| Airport | London Gatwick Airport (EGKK) |
| Time | Latitude | Longitude | Altitude | Speed | Heading |
|---|---|---|---|---|---|
| 2026-05-07 17:41 | 51.47400 | -0.48584 | 87 ft | 0 kts | 269° |
| 2026-05-07 18:02 | 51.47400 | -0.48577 | 87 ft | 2 kts | 269° |
| 2026-05-07 18:03 | 51.47401 | -0.48551 | 89 ft | 2 kts | 269° |
| 2026-05-07 18:03 | 51.47401 | -0.48525 | 87 ft | 2 kts | 269° |
| 2026-05-07 18:03 | 51.47401 | -0.48498 | 87 ft | 2 kts | 269° |
| 2026-05-07 18:03 | 51.47404 | -0.48473 | 87 ft | 2 kts | 205° |
| 2026-05-07 18:04 | 51.47397 | -0.48474 | 86 ft | 0 kts | 190° |
| 2026-05-07 18:07 | 51.47396 | -0.48474 | 86 ft | 1 kts | 190° |
| 2026-05-07 18:07 | 51.47369 | -0.48482 | 88 ft | 8 kts | 189° |
| 2026-05-07 18:08 | 51.47286 | -0.48477 | 86 ft | 16 kts | 178° |
| 2026-05-07 18:08 | 51.47162 | -0.48476 | 86 ft | 18 kts | 181° |
| 2026-05-07 18:08 | 51.47033 | -0.48475 | 86 ft | 19 kts | 179° |
| 2026-05-07 18:08 | 51.46901 | -0.48472 | 88 ft | 16 kts | 179° |
| 2026-05-07 18:09 | 51.46826 | -0.48471 | 88 ft | 2 kts | 179° |
| 2026-05-07 18:10 | 51.46797 | -0.48471 | 90 ft | 8 kts | 180° |
| 2026-05-07 18:10 | 51.46735 | -0.48532 | 88 ft | 12 kts | 248° |
| 2026-05-07 18:10 | 51.46737 | -0.48669 | 87 ft | 13 kts | 270° |
| 2026-05-07 18:11 | 51.46701 | -0.48747 | 88 ft | 5 kts | 197° |
| 2026-05-07 18:11 | 51.46694 | -0.48749 | 88 ft | 0 kts | 188° |
| 2026-05-07 18:11 | 51.46679 | -0.48751 | 88 ft | 4 kts | 184° |
| 2026-05-07 18:11 | 51.46637 | -0.48754 | 87 ft | 9 kts | 186° |
| 2026-05-07 18:12 | 51.46602 | -0.48768 | 90 ft | 0 kts | 198° |
| 2026-05-07 18:12 | 51.46571 | -0.48782 | 86 ft | 9 kts | 194° |
| 2026-05-07 18:12 | 51.46506 | -0.48768 | 88 ft | 9 kts | 150° |
| 2026-05-07 18:13 | 51.46477 | -0.48673 | 88 ft | 11 kts | 94° |
| 2026-05-07 18:13 | 51.46478 | -0.48630 | 88 ft | 0 kts | 90° |
| 2026-05-07 18:15 | 51.46478 | -0.48572 | 87 ft | 21 kts | 90° |
| 2026-05-07 18:15 | 51.46480 | -0.48001 | 85 ft | 81 kts | 90° |
| 2026-05-07 18:15 | 51.46484 | -0.46810 | 91 ft | 131 kts | 90° |
| 2026-05-07 18:15 | 51.46516 | -0.45236 | 563 ft | 134 kts | 88° |
| 2026-05-07 18:16 | 51.46524 | -0.43739 | 1151 ft | 143 kts | 91° |
| 2026-05-07 18:16 | 51.46474 | -0.42085 | 1742 ft | 150 kts | 107° |
| 2026-05-07 18:16 | 51.46119 | -0.40468 | 2342 ft | 159 kts | 124° |
| 2026-05-07 18:16 | 51.45430 | -0.38989 | 2929 ft | 173 kts | 129° |
| 2026-05-07 18:17 | 51.44462 | -0.37764 | 3518 ft | 187 kts | 159° |
| 2026-05-07 18:17 | 51.43171 | -0.37129 | 4106 ft | 202 kts | 163° |
| 2026-05-07 18:17 | 51.41771 | -0.36437 | 4747 ft | 219 kts | 162° |
| 2026-05-07 18:17 | 51.40257 | -0.35852 | 5435 ft | 236 kts | 177° |
| 2026-05-07 18:18 | 51.38605 | -0.36325 | 6240 ft | 251 kts | 204° |
| 2026-05-07 18:18 | 51.36981 | -0.37634 | 6857 ft | 272 kts | 207° |
| 2026-05-07 18:18 | 51.35286 | -0.39043 | 7004 ft | 273 kts | 207° |
| 2026-05-07 18:18 | 51.33616 | -0.40433 | 7018 ft | 273 kts | 207° |
| 2026-05-07 18:19 | 51.31930 | -0.41830 | 7010 ft | 273 kts | 207° |
| 2026-05-07 18:19 | 51.30236 | -0.43192 | 7008 ft | 273 kts | 206° |
| 2026-05-07 18:19 | 51.28611 | -0.44736 | 7029 ft | 272 kts | 221° |
| 2026-05-07 18:19 | 51.27244 | -0.46846 | 7003 ft | 273 kts | 225° |
| 2026-05-07 18:20 | 51.25926 | -0.49027 | 7006 ft | 273 kts | 226° |
| 2026-05-07 18:20 | 51.24614 | -0.51215 | 7005 ft | 273 kts | 226° |
| 2026-05-07 18:20 | 51.23304 | -0.53397 | 6823 ft | 271 kts | 226° |
| 2026-05-07 18:20 | 51.22004 | -0.55563 | 6432 ft | 270 kts | 226° |
| 2026-05-07 18:21 | 51.20704 | -0.57731 | 6005 ft | 271 kts | 226° |
| 2026-05-07 18:21 | 51.19349 | -0.59802 | 5620 ft | 269 kts | 213° |
| 2026-05-07 18:21 | 51.17631 | -0.60848 | 5289 ft | 265 kts | 185° |
| 2026-05-07 18:21 | 51.15797 | -0.60729 | 4865 ft | 264 kts | 172° |
| 2026-05-07 18:22 | 51.13983 | -0.60281 | 4453 ft | 263 kts | 162° |
| 2026-05-07 18:22 | 51.12904 | -0.59453 | 4258 ft | 259 kts | 142° |
| 2026-05-07 18:22 | 51.11381 | -0.56564 | 3750 ft | 256 kts | 122° |
| 2026-05-07 18:22 | 51.10474 | -0.54170 | 3376 ft | 255 kts | 113° |
| 2026-05-07 18:23 | 51.10261 | -0.51474 | 3158 ft | 242 kts | 82° |
| 2026-05-07 18:23 | 51.10600 | -0.48922 | 3009 ft | 229 kts | 76° |
| 2026-05-07 18:23 | 51.10961 | -0.46566 | 2981 ft | 209 kts | 77° |
| 2026-05-07 18:23 | 51.11272 | -0.44407 | 2989 ft | 191 kts | 78° |
| 2026-05-07 18:24 | 51.11548 | -0.42453 | 2963 ft | 175 kts | 78° |
| 2026-05-07 18:24 | 51.11802 | -0.40638 | 2736 ft | 162 kts | 78° |
| 2026-05-07 18:24 | 51.12040 | -0.38944 | 2512 ft | 152 kts | 79° |
| 2026-05-07 18:24 | 51.12265 | -0.37336 | 2299 ft | 145 kts | 79° |
| 2026-05-07 18:25 | 51.12477 | -0.35821 | 2113 ft | 136 kts | 79° |
| 2026-05-07 18:25 | 51.12680 | -0.34366 | 1932 ft | 137 kts | 80° |
| 2026-05-07 18:25 | 51.12887 | -0.32883 | 1749 ft | 137 kts | 80° |
| 2026-05-07 18:25 | 51.13093 | -0.31402 | 1558 ft | 137 kts | 80° |
| 2026-05-07 18:26 | 51.13298 | -0.29927 | 1366 ft | 136 kts | 80° |
| 2026-05-07 18:26 | 51.13503 | -0.28456 | 1176 ft | 136 kts | 80° |
| 2026-05-07 18:26 | 51.13710 | -0.26989 | 997 ft | 135 kts | 78° |
| 2026-05-07 18:26 | 51.13931 | -0.25547 | 849 ft | 134 kts | 78° |
| 2026-05-07 18:27 | 51.14123 | -0.24107 | 616 ft | 131 kts | 79° |
| 2026-05-07 18:27 | 51.14318 | -0.22703 | 501 ft | 124 kts | 81° |
| 2026-05-07 18:27 | 51.14500 | -0.21342 | 365 ft | 128 kts | 79° |
| 2026-05-07 18:27 | 51.14628 | -0.20425 | 221 ft | 128 kts | 81° |
| 2026-05-07 18:28 | 51.14827 | -0.18949 | 218 ft | 66 kts | 77° |
| 2026-05-07 18:28 | 51.14909 | -0.18344 | 210 ft | 49 kts | 77° |
| 2026-05-07 18:28 | 51.14976 | -0.17873 | 217 ft | 41 kts | 78° |
| 2026-05-07 18:28 | 51.15034 | -0.17466 | 221 ft | 32 kts | 72° |
| 2026-05-07 18:29 | 51.15089 | -0.17277 | 213 ft | 23 kts | 56° |
| 2026-05-07 18:29 | 51.15171 | -0.17235 | 209 ft | 5 kts | 324° |
| 2026-05-07 18:29 | 51.15204 | -0.17273 | 212 ft | 7 kts | 324° |
| 2026-05-07 18:29 | 51.15246 | -0.17322 | 215 ft | 9 kts | 325° |
| 2026-05-07 18:30 | 51.15268 | -0.17342 | 210 ft | 0 kts | 334° |
| 2026-05-07 18:30 | 51.15276 | -0.17347 | 211 ft | 2 kts | 339° |
| 2026-05-07 18:30 | 51.15281 | -0.17349 | 209 ft | 0 kts | 343° |
| 2026-05-07 18:31 | 51.15284 | -0.17350 | 209 ft | 2 kts | 343° |
| 2026-05-07 18:31 | 51.15310 | -0.17360 | 212 ft | 6 kts | 348° |
| 2026-05-07 18:32 | 51.15372 | -0.17381 | 217 ft | 11 kts | 348° |
| 2026-05-07 18:32 | 51.15451 | -0.17408 | 211 ft | 13 kts | 348° |
| 2026-05-07 18:32 | 51.15551 | -0.17441 | 206 ft | 15 kts | 358° |
| 2026-05-07 18:32 | 51.15604 | -0.17315 | 213 ft | 15 kts | 76° |
| 2026-05-07 18:33 | 51.15629 | -0.17149 | 209 ft | 16 kts | 76° |
| 2026-05-07 18:33 | 51.15653 | -0.16976 | 211 ft | 16 kts | 77° |
| 2026-05-07 18:33 | 51.15674 | -0.16826 | 206 ft | 13 kts | 77° |
| 2026-05-07 18:33 | 51.15720 | -0.16759 | 206 ft | 10 kts | 352° |
| 2026-05-07 18:34 | 51.15757 | -0.16771 | 214 ft | 2 kts | 348° |
| 2026-05-07 18:34 | 51.15760 | -0.16772 | 213 ft | 0 kts | 347° |